sensor_id;sensor_type;location;lat;lon;timestamp;temperature;humidity
16781;DHT22;8507;50.056;8.248;2023-02-26T00:01:15;0.80;99.90
16781;DHT22;8507;50.056;8.248;2023-02-26T00:03:41;0.80;99.90
16781;DHT22;8507;50.056;8.248;2023-02-26T00:06:07;0.80;99.90
16781;DHT22;8507;50.056;8.248;2023-02-26T00:08:34;0.70;99.90
16781;DHT22;8507;50.056;8.248;2023-02-26T00:10:59;0.80;99.90
16781;DHT22;8507;50.056;8.248;2023-02-26T00:13:27;0.80;99.90
16781;DHT22;8507;50.056;8.248;2023-02-26T00:15:57;0.80;99.90
16781;DHT22;8507;50.056;8.248;2023-02-26T00:18:23;1.00;99.90
16781;DHT22;8507;50.056;8.248;2023-02-26T00:20:49;1.20;99.90
16781;DHT22;8507;50.056;8.248;2023-02-26T00:23:15;1.20;99.90
16781;DHT22;8507;50.056;8.248;2023-02-26T00:25:41;1.40;99.90
16781;DHT22;8507;50.056;8.248;2023-02-26T00:28:08;1.50;99.90
16781;DHT22;8507;50.056;8.248;2023-02-26T00:30:34;1.50;99.90
16781;DHT22;8507;50.056;8.248;2023-02-26T00:33:00;1.60;99.90
16781;DHT22;8507;50.056;8.248;2023-02-26T00:35:26;1.80;99.90
16781;DHT22;8507;50.056;8.248;2023-02-26T00:42:52;1.80;99.90
16781;DHT22;8507;50.056;8.248;2023-02-26T00:45:18;1.90;99.90
16781;DHT22;8507;50.056;8.248;2023-02-26T00:50:34;1.80;99.90
16781;DHT22;8507;50.056;8.248;2023-02-26T00:53:11;1.70;99.90
16781;DHT22;8507;50.056;8.248;2023-02-26T00:55:39;1.70;99.90
16781;DHT22;8507;50.056;8.248;2023-02-26T00:58:04;1.50;99.90
16781;DHT22;8507;50.056;8.248;2023-02-26T01:00:30;1.40;99.90
16781;DHT22;8507;50.056;8.248;2023-02-26T01:02:56;1.50;99.90
16781;DHT22;8507;50.056;8.248;2023-02-26T01:05:22;1.60;99.90
16781;DHT22;8507;50.056;8.248;2023-02-26T01:10:42;1.60;99.90
16781;DHT22;8507;50.056;8.248;2023-02-26T01:13:08;1.40;99.90
16781;DHT22;8507;50.056;8.248;2023-02-26T01:15:34;1.30;99.90
16781;DHT22;8507;50.056;8.248;2023-02-26T01:18:11;1.50;99.90
16781;DHT22;8507;50.056;8.248;2023-02-26T01:20:52;1.50;99.90
16781;DHT22;8507;50.056;8.248;2023-02-26T01:23:23;1.50;99.90
16781;DHT22;8507;50.056;8.248;2023-02-26T01:25:55;1.60;99.90
16781;DHT22;8507;50.056;8.248;2023-02-26T01:28:23;1.70;99.90
16781;DHT22;8507;50.056;8.248;2023-02-26T01:30:54;1.60;99.90
16781;DHT22;8507;50.056;8.248;2023-02-26T01:33:40;1.40;99.90
16781;DHT22;8507;50.056;8.248;2023-02-26T01:36:08;1.40;99.90
16781;DHT22;8507;50.056;8.248;2023-02-26T01:38:51;1.50;99.90
16781;DHT22;8507;50.056;8.248;2023-02-26T01:49:34;1.40;99.90
16781;DHT22;8507;50.056;8.248;2023-02-26T01:55:00;1.30;99.90
16781;DHT22;8507;50.056;8.248;2023-02-26T01:57:26;1.20;99.90
16781;DHT22;8507;50.056;8.248;2023-02-26T01:59:53;1.20;99.90
16781;DHT22;8507;50.056;8.248;2023-02-26T02:02:21;1.10;99.90
16781;DHT22;8507;50.056;8.248;2023-02-26T02:04:48;1.10;99.90
16781;DHT22;8507;50.056;8.248;2023-02-26T02:07:15;1.10;99.90
16781;DHT22;8507;50.056;8.248;2023-02-26T02:09:41;1.20;99.90
16781;DHT22;8507;50.056;8.248;2023-02-26T02:15:05;1.10;99.90
16781;DHT22;8507;50.056;8.248;2023-02-26T02:17:56;1.00;99.90
16781;DHT22;8507;50.056;8.248;2023-02-26T02:23:04;0.80;99.90
16781;DHT22;8507;50.056;8.248;2023-02-26T02:31:25;0.70;99.90
16781;DHT22;8507;50.056;8.248;2023-02-26T02:34:18;0.70;99.90
16781;DHT22;8507;50.056;8.248;2023-02-26T02:36:58;0.70;99.90
16781;DHT22;8507;50.056;8.248;2023-02-26T02:39:32;0.50;99.90
16781;DHT22;8507;50.056;8.248;2023-02-26T02:42:28;0.50;99.90
16781;DHT22;8507;50.056;8.248;2023-02-26T02:44:56;0.40;99.90
16781;DHT22;8507;50.056;8.248;2023-02-26T02:47:24;0.40;99.90
16781;DHT22;8507;50.056;8.248;2023-02-26T02:50:02;0.30;99.90
16781;DHT22;8507;50.056;8.248;2023-02-26T02:52:37;0.30;99.90
16781;DHT22;8507;50.056;8.248;2023-02-26T02:55:23;0.30;99.90
16781;DHT22;8507;50.056;8.248;2023-02-26T02:58:03;0.20;99.90
16781;DHT22;8507;50.056;8.248;2023-02-26T03:00:31;0.20;99.90
16781;DHT22;8507;50.056;8.248;2023-02-26T03:03:20;0.20;99.90
16781;DHT22;8507;50.056;8.248;2023-02-26T03:05:49;0.20;99.90
16781;DHT22;8507;50.056;8.248;2023-02-26T03:08:17;0.10;99.90
16781;DHT22;8507;50.056;8.248;2023-02-26T03:10:45;0.10;99.90
16781;DHT22;8507;50.056;8.248;2023-02-26T03:13:23;0.00;99.90
16781;DHT22;8507;50.056;8.248;2023-02-26T03:18:23;0.00;99.90
16781;DHT22;8507;50.056;8.248;2023-02-26T03:21:01;0.00;99.90
16781;DHT22;8507;50.056;8.248;2023-02-26T03:23:42;-0.10;99.90
16781;DHT22;8507;50.056;8.248;2023-02-26T03:26:14;-0.10;99.90
16781;DHT22;8507;50.056;8.248;2023-02-26T03:29:02;-0.10;99.90
16781;DHT22;8507;50.056;8.248;2023-02-26T03:31:54;-0.10;99.90
16781;DHT22;8507;50.056;8.248;2023-02-26T03:34:47;-0.20;99.90
16781;DHT22;8507;50.056;8.248;2023-02-26T03:37:26;-0.20;99.90
16781;DHT22;8507;50.056;8.248;2023-02-26T03:39:58;-0.20;99.90
16781;DHT22;8507;50.056;8.248;2023-02-26T03:42:29;-0.30;99.90
16781;DHT22;8507;50.056;8.248;2023-02-26T03:45:00;-0.30;99.90
16781;DHT22;8507;50.056;8.248;2023-02-26T03:47:28;-0.30;99.90
16781;DHT22;8507;50.056;8.248;2023-02-26T03:50:01;-0.30;99.90
16781;DHT22;8507;50.056;8.248;2023-02-26T03:52:30;-0.30;99.90
16781;DHT22;8507;50.056;8.248;2023-02-26T03:55:00;-0.30;99.90
16781;DHT22;8507;50.056;8.248;2023-02-26T03:57:27;-0.30;99.90
16781;DHT22;8507;50.056;8.248;2023-02-26T03:59:53;-0.30;99.90
16781;DHT22;8507;50.056;8.248;2023-02-26T04:02:26;-0.30;99.90
16781;DHT22;8507;50.056;8.248;2023-02-26T04:04:58;-0.40;99.90
16781;DHT22;8507;50.056;8.248;2023-02-26T04:07:25;-0.40;99.90
16781;DHT22;8507;50.056;8.248;2023-02-26T04:09:51;-0.40;99.90
16781;DHT22;8507;50.056;8.248;2023-02-26T04:12:25;-0.40;99.90
16781;DHT22;8507;50.056;8.248;2023-02-26T04:14:51;-0.40;99.90
16781;DHT22;8507;50.056;8.248;2023-02-26T04:17:17;-0.50;99.90
16781;DHT22;8507;50.056;8.248;2023-02-26T04:19:43;-0.50;99.90
16781;DHT22;8507;50.056;8.248;2023-02-26T04:22:09;-0.50;99.90
16781;DHT22;8507;50.056;8.248;2023-02-26T04:24:34;-0.50;99.90
16781;DHT22;8507;50.056;8.248;2023-02-26T04:27:00;-0.40;99.90
16781;DHT22;8507;50.056;8.248;2023-02-26T04:29:25;-0.50;99.90
16781;DHT22;8507;50.056;8.248;2023-02-26T04:31:52;-0.40;99.90
16781;DHT22;8507;50.056;8.248;2023-02-26T04:34:18;-0.40;99.90
16781;DHT22;8507;50.056;8.248;2023-02-26T04:36:43;-0.40;99.90
16781;DHT22;8507;50.056;8.248;2023-02-26T04:39:09;-0.50;99.90
16781;DHT22;8507;50.056;8.248;2023-02-26T04:41:35;-0.50;99.90
16781;DHT22;8507;50.056;8.248;2023-02-26T04:44:02;-0.50;99.90
16781;DHT22;8507;50.056;8.248;2023-02-26T04:46:28;-0.40;99.90
16781;DHT22;8507;50.056;8.248;2023-02-26T04:48:54;-0.50;99.90
16781;DHT22;8507;50.056;8.248;2023-02-26T04:51:19;-0.40;99.90
16781;DHT22;8507;50.056;8.248;2023-02-26T04:53:45;-0.40;99.90
16781;DHT22;8507;50.056;8.248;2023-02-26T04:56:10;-0.50;99.90
16781;DHT22;8507;50.056;8.248;2023-02-26T04:58:36;-0.40;99.90
16781;DHT22;8507;50.056;8.248;2023-02-26T05:01:02;-0.40;99.90
16781;DHT22;8507;50.056;8.248;2023-02-26T05:03:27;-0.50;99.90
16781;DHT22;8507;50.056;8.248;2023-02-26T05:05:54;-0.50;99.90
16781;DHT22;8507;50.056;8.248;2023-02-26T05:08:19;-0.50;99.90
16781;DHT22;8507;50.056;8.248;2023-02-26T05:10:45;-0.50;99.90
16781;DHT22;8507;50.056;8.248;2023-02-26T05:13:11;-0.50;99.90
16781;DHT22;8507;50.056;8.248;2023-02-26T05:15:37;-0.50;99.90
16781;DHT22;8507;50.056;8.248;2023-02-26T05:18:02;-0.60;99.90
16781;DHT22;8507;50.056;8.248;2023-02-26T05:20:28;-0.60;99.90
16781;DHT22;8507;50.056;8.248;2023-02-26T05:22:53;-0.50;99.90
16781;DHT22;8507;50.056;8.248;2023-02-26T05:25:19;-0.60;99.90
16781;DHT22;8507;50.056;8.248;2023-02-26T05:27:45;-0.60;99.90
16781;DHT22;8507;50.056;8.248;2023-02-26T05:30:13;-0.60;99.90
16781;DHT22;8507;50.056;8.248;2023-02-26T05:32:39;-0.60;99.90
16781;DHT22;8507;50.056;8.248;2023-02-26T05:35:05;-0.60;99.90
16781;DHT22;8507;50.056;8.248;2023-02-26T05:37:30;-0.60;99.90
16781;DHT22;8507;50.056;8.248;2023-02-26T05:39:56;-0.60;99.90
16781;DHT22;8507;50.056;8.248;2023-02-26T05:42:21;-0.60;99.90
16781;DHT22;8507;50.056;8.248;2023-02-26T05:44:47;-0.50;99.90
16781;DHT22;8507;50.056;8.248;2023-02-26T05:47:12;-0.60;99.90
16781;DHT22;8507;50.056;8.248;2023-02-26T05:49:38;-0.60;99.90
16781;DHT22;8507;50.056;8.248;2023-02-26T05:52:04;-0.60;99.90
16781;DHT22;8507;50.056;8.248;2023-02-26T05:54:29;-0.60;99.90
16781;DHT22;8507;50.056;8.248;2023-02-26T05:56:55;-0.60;99.90
16781;DHT22;8507;50.056;8.248;2023-02-26T05:59:20;-0.50;99.90
16781;DHT22;8507;50.056;8.248;2023-02-26T06:01:46;-0.60;99.90
16781;DHT22;8507;50.056;8.248;2023-02-26T06:04:12;-0.60;99.90
16781;DHT22;8507;50.056;8.248;2023-02-26T06:06:37;-0.60;99.90
16781;DHT22;8507;50.056;8.248;2023-02-26T06:09:06;-0.60;99.90
16781;DHT22;8507;50.056;8.248;2023-02-26T06:11:32;-0.60;99.90
16781;DHT22;8507;50.056;8.248;2023-02-26T06:13:58;-0.60;99.90
16781;DHT22;8507;50.056;8.248;2023-02-26T06:16:23;-0.50;99.90
16781;DHT22;8507;50.056;8.248;2023-02-26T06:18:49;-0.50;99.90
16781;DHT22;8507;50.056;8.248;2023-02-26T06:21:15;-0.60;99.90
16781;DHT22;8507;50.056;8.248;2023-02-26T06:23:41;-0.60;99.90
16781;DHT22;8507;50.056;8.248;2023-02-26T06:26:07;-0.50;99.90
16781;DHT22;8507;50.056;8.248;2023-02-26T06:28:32;-0.50;99.90
16781;DHT22;8507;50.056;8.248;2023-02-26T06:30:58;-0.50;99.90
16781;DHT22;8507;50.056;8.248;2023-02-26T06:33:24;-0.50;99.90
16781;DHT22;8507;50.056;8.248;2023-02-26T06:35:50;-0.40;99.90
16781;DHT22;8507;50.056;8.248;2023-02-26T06:38:16;-0.30;99.90
16781;DHT22;8507;50.056;8.248;2023-02-26T06:40:41;-0.30;99.90
16781;DHT22;8507;50.056;8.248;2023-02-26T06:43:07;-0.30;99.90
16781;DHT22;8507;50.056;8.248;2023-02-26T06:45:33;-0.30;99.90
16781;DHT22;8507;50.056;8.248;2023-02-26T06:47:59;-0.20;99.90
16781;DHT22;8507;50.056;8.248;2023-02-26T06:50:24;-0.20;99.90
16781;DHT22;8507;50.056;8.248;2023-02-26T06:52:50;-0.10;99.90
16781;DHT22;8507;50.056;8.248;2023-02-26T06:55:15;0.00;99.90
16781;DHT22;8507;50.056;8.248;2023-02-26T06:57:41;0.00;99.90
16781;DHT22;8507;50.056;8.248;2023-02-26T07:00:08;0.00;99.90
16781;DHT22;8507;50.056;8.248;2023-02-26T07:02:33;0.10;99.90
16781;DHT22;8507;50.056;8.248;2023-02-26T07:04:59;0.10;99.90
16781;DHT22;8507;50.056;8.248;2023-02-26T07:07:25;0.20;99.90
16781;DHT22;8507;50.056;8.248;2023-02-26T07:09:50;0.30;99.90
16781;DHT22;8507;50.056;8.248;2023-02-26T07:12:16;0.30;99.90
16781;DHT22;8507;50.056;8.248;2023-02-26T07:14:41;0.30;99.90
16781;DHT22;8507;50.056;8.248;2023-02-26T07:17:07;0.40;99.90
16781;DHT22;8507;50.056;8.248;2023-02-26T07:19:33;0.40;99.90
16781;DHT22;8507;50.056;8.248;2023-02-26T07:21:59;0.40;99.90
16781;DHT22;8507;50.056;8.248;2023-02-26T07:24:24;0.40;99.90
16781;DHT22;8507;50.056;8.248;2023-02-26T07:26:50;0.40;99.90
16781;DHT22;8507;50.056;8.248;2023-02-26T07:29:15;0.50;99.90
16781;DHT22;8507;50.056;8.248;2023-02-26T07:31:41;0.60;99.90
16781;DHT22;8507;50.056;8.248;2023-02-26T07:34:06;0.60;99.90
16781;DHT22;8507;50.056;8.248;2023-02-26T07:36:32;0.80;99.90
16781;DHT22;8507;50.056;8.248;2023-02-26T07:38:58;0.80;99.90
16781;DHT22;8507;50.056;8.248;2023-02-26T07:41:23;0.90;99.90
16781;DHT22;8507;50.056;8.248;2023-02-26T07:43:49;0.80;99.90
16781;DHT22;8507;50.056;8.248;2023-02-26T07:46:14;0.90;99.90
16781;DHT22;8507;50.056;8.248;2023-02-26T07:48:40;1.00;99.90
16781;DHT22;8507;50.056;8.248;2023-02-26T07:51:06;1.00;99.90
16781;DHT22;8507;50.056;8.248;2023-02-26T07:53:32;1.10;99.90
16781;DHT22;8507;50.056;8.248;2023-02-26T07:55:58;1.20;99.90
16781;DHT22;8507;50.056;8.248;2023-02-26T07:58:24;1.30;99.90
16781;DHT22;8507;50.056;8.248;2023-02-26T08:00:49;1.20;99.90
16781;DHT22;8507;50.056;8.248;2023-02-26T08:03:17;1.10;99.90
16781;DHT22;8507;50.056;8.248;2023-02-26T08:05:43;1.10;99.90
16781;DHT22;8507;50.056;8.248;2023-02-26T08:08:09;1.10;99.90
16781;DHT22;8507;50.056;8.248;2023-02-26T08:10:34;1.00;99.90
16781;DHT22;8507;50.056;8.248;2023-02-26T08:13:00;0.80;99.90
16781;DHT22;8507;50.056;8.248;2023-02-26T08:15:25;0.90;99.90
16781;DHT22;8507;50.056;8.248;2023-02-26T08:17:52;0.90;99.90
16781;DHT22;8507;50.056;8.248;2023-02-26T08:20:18;0.80;99.90
16781;DHT22;8507;50.056;8.248;2023-02-26T08:22:43;0.90;99.90
16781;DHT22;8507;50.056;8.248;2023-02-26T08:25:09;0.80;99.90
16781;DHT22;8507;50.056;8.248;2023-02-26T08:27:35;0.80;99.90
16781;DHT22;8507;50.056;8.248;2023-02-26T08:30:01;0.80;99.90
16781;DHT22;8507;50.056;8.248;2023-02-26T08:32:26;0.70;99.90
16781;DHT22;8507;50.056;8.248;2023-02-26T08:34:52;0.80;99.90
16781;DHT22;8507;50.056;8.248;2023-02-26T08:37:18;0.80;99.90
16781;DHT22;8507;50.056;8.248;2023-02-26T08:39:46;0.90;99.90
16781;DHT22;8507;50.056;8.248;2023-02-26T08:42:11;1.00;99.90
16781;DHT22;8507;50.056;8.248;2023-02-26T08:44:41;1.40;99.90
16781;DHT22;8507;50.056;8.248;2023-02-26T08:47:06;1.40;99.90
16781;DHT22;8507;50.056;8.248;2023-02-26T08:49:32;1.50;99.90
16781;DHT22;8507;50.056;8.248;2023-02-26T08:51:57;1.40;99.90
16781;DHT22;8507;50.056;8.248;2023-02-26T08:54:23;1.50;99.90
16781;DHT22;8507;50.056;8.248;2023-02-26T08:56:49;1.50;99.90
16781;DHT22;8507;50.056;8.248;2023-02-26T08:59:15;1.40;99.90
16781;DHT22;8507;50.056;8.248;2023-02-26T09:01:41;1.50;99.90
16781;DHT22;8507;50.056;8.248;2023-02-26T09:04:06;2.00;99.90
16781;DHT22;8507;50.056;8.248;2023-02-26T09:06:32;2.20;99.90
16781;DHT22;8507;50.056;8.248;2023-02-26T09:08:57;2.30;99.90
16781;DHT22;8507;50.056;8.248;2023-02-26T09:11:23;2.80;99.90
16781;DHT22;8507;50.056;8.248;2023-02-26T09:13:48;2.70;99.90
16781;DHT22;8507;50.056;8.248;2023-02-26T09:16:14;2.90;99.90
16781;DHT22;8507;50.056;8.248;2023-02-26T09:18:39;3.00;99.90
16781;DHT22;8507;50.056;8.248;2023-02-26T09:21:05;3.10;99.90
16781;DHT22;8507;50.056;8.248;2023-02-26T09:23:30;2.70;99.90
16781;DHT22;8507;50.056;8.248;2023-02-26T09:25:56;2.60;99.90
16781;DHT22;8507;50.056;8.248;2023-02-26T09:28:23;2.80;99.90
16781;DHT22;8507;50.056;8.248;2023-02-26T09:30:55;2.60;99.90
16781;DHT22;8507;50.056;8.248;2023-02-26T09:33:21;2.50;99.90
16781;DHT22;8507;50.056;8.248;2023-02-26T09:35:48;2.80;99.90
16781;DHT22;8507;50.056;8.248;2023-02-26T09:38:14;3.10;99.90
16781;DHT22;8507;50.056;8.248;2023-02-26T09:40:50;3.10;99.90
16781;DHT22;8507;50.056;8.248;2023-02-26T09:45:57;3.40;99.90
16781;DHT22;8507;50.056;8.248;2023-02-26T09:48:25;3.30;99.90
16781;DHT22;8507;50.056;8.248;2023-02-26T09:50:55;3.10;99.90
16781;DHT22;8507;50.056;8.248;2023-02-26T09:53:27;3.10;99.90
16781;DHT22;8507;50.056;8.248;2023-02-26T09:56:18;2.80;99.90
16781;DHT22;8507;50.056;8.248;2023-02-26T09:58:46;2.70;99.90
16781;DHT22;8507;50.056;8.248;2023-02-26T10:01:27;2.80;99.90
16781;DHT22;8507;50.056;8.248;2023-02-26T10:07:38;2.50;99.90
16781;DHT22;8507;50.056;8.248;2023-02-26T10:10:30;2.60;99.90
16781;DHT22;8507;50.056;8.248;2023-02-26T10:12:58;2.90;99.90
16781;DHT22;8507;50.056;8.248;2023-02-26T10:15:40;2.80;99.90
16781;DHT22;8507;50.056;8.248;2023-02-26T10:18:20;3.00;99.90
16781;DHT22;8507;50.056;8.248;2023-02-26T10:26:06;3.50;99.90
16781;DHT22;8507;50.056;8.248;2023-02-26T10:28:48;3.80;99.90
16781;DHT22;8507;50.056;8.248;2023-02-26T10:33:54;4.30;99.90
16781;DHT22;8507;50.056;8.248;2023-02-26T10:36:26;4.60;99.90
16781;DHT22;8507;50.056;8.248;2023-02-26T10:41:49;4.30;99.90
16781;DHT22;8507;50.056;8.248;2023-02-26T10:47:20;4.50;99.90
16781;DHT22;8507;50.056;8.248;2023-02-26T10:49:58;4.80;99.90
16781;DHT22;8507;50.056;8.248;2023-02-26T10:52:26;4.50;99.90
16781;DHT22;8507;50.056;8.248;2023-02-26T10:58:04;4.80;99.90
16781;DHT22;8507;50.056;8.248;2023-02-26T11:00:30;5.20;99.90
16781;DHT22;8507;50.056;8.248;2023-02-26T11:02:56;5.20;99.90
16781;DHT22;8507;50.056;8.248;2023-02-26T11:05:26;5.40;99.90
16781;DHT22;8507;50.056;8.248;2023-02-26T11:07:56;5.30;99.90
16781;DHT22;8507;50.056;8.248;2023-02-26T11:10:24;5.20;99.90
16781;DHT22;8507;50.056;8.248;2023-02-26T11:12:51;5.10;99.90
16781;DHT22;8507;50.056;8.248;2023-02-26T11:15:20;4.70;99.90
16781;DHT22;8507;50.056;8.248;2023-02-26T11:17:48;5.00;99.90
16781;DHT22;8507;50.056;8.248;2023-02-26T11:22:56;3.80;99.90
16781;DHT22;8507;50.056;8.248;2023-02-26T11:25:26;3.70;99.90
16781;DHT22;8507;50.056;8.248;2023-02-26T11:27:59;3.60;99.90
16781;DHT22;8507;50.056;8.248;2023-02-26T11:30:26;3.80;99.90
16781;DHT22;8507;50.056;8.248;2023-02-26T11:32:57;3.40;99.90
16781;DHT22;8507;50.056;8.248;2023-02-26T11:35:24;3.90;99.90
16781;DHT22;8507;50.056;8.248;2023-02-26T11:37:57;4.00;99.90
16781;DHT22;8507;50.056;8.248;2023-02-26T11:42:56;4.10;99.90
16781;DHT22;8507;50.056;8.248;2023-02-26T11:45:22;4.00;99.90
16781;DHT22;8507;50.056;8.248;2023-02-26T11:47:57;3.90;99.90
16781;DHT22;8507;50.056;8.248;2023-02-26T11:50:23;4.20;99.90
16781;DHT22;8507;50.056;8.248;2023-02-26T11:53:17;4.10;99.90
16781;DHT22;8507;50.056;8.248;2023-02-26T11:55:46;4.90;99.90
16781;DHT22;8507;50.056;8.248;2023-02-26T11:58:21;4.70;99.90
16781;DHT22;8507;50.056;8.248;2023-02-26T12:00:48;4.90;99.90
16781;DHT22;8507;50.056;8.248;2023-02-26T12:03:21;5.10;99.90
16781;DHT22;8507;50.056;8.248;2023-02-26T12:05:47;5.20;99.90
16781;DHT22;8507;50.056;8.248;2023-02-26T12:08:24;5.20;99.90
16781;DHT22;8507;50.056;8.248;2023-02-26T12:20:23;4.30;99.90
16781;DHT22;8507;50.056;8.248;2023-02-26T12:23:19;5.10;99.90
16781;DHT22;8507;50.056;8.248;2023-02-26T12:37:02;4.50;99.90
16781;DHT22;8507;50.056;8.248;2023-02-26T12:45:50;4.10;99.90
16781;DHT22;8507;50.056;8.248;2023-02-26T12:48:30;3.90;99.90
16781;DHT22;8507;50.056;8.248;2023-02-26T12:53:58;4.10;99.90
16781;DHT22;8507;50.056;8.248;2023-02-26T12:56:59;4.00;99.90
16781;DHT22;8507;50.056;8.248;2023-02-26T13:00:01;4.00;99.90
16781;DHT22;8507;50.056;8.248;2023-02-26T13:06:07;4.30;99.90
16781;DHT22;8507;50.056;8.248;2023-02-26T13:17:06;3.90;99.90
16781;DHT22;8507;50.056;8.248;2023-02-26T13:19:49;3.60;99.90
16781;DHT22;8507;50.056;8.248;2023-02-26T13:22:20;3.60;99.90
16781;DHT22;8507;50.056;8.248;2023-02-26T13:25:03;3.80;99.90
16781;DHT22;8507;50.056;8.248;2023-02-26T13:27:34;3.80;99.90
16781;DHT22;8507;50.056;8.248;2023-02-26T13:30:25;3.60;99.90
16781;DHT22;8507;50.056;8.248;2023-02-26T13:32:56;3.60;99.90
16781;DHT22;8507;50.056;8.248;2023-02-26T13:35:34;3.70;99.90
16781;DHT22;8507;50.056;8.248;2023-02-26T13:38:18;4.00;99.90
16781;DHT22;8507;50.056;8.248;2023-02-26T13:46:10;4.00;99.90
16781;DHT22;8507;50.056;8.248;2023-02-26T13:48:59;3.80;99.90
16781;DHT22;8507;50.056;8.248;2023-02-26T13:51:36;3.70;99.90
16781;DHT22;8507;50.056;8.248;2023-02-26T13:54:07;3.60;99.90
16781;DHT22;8507;50.056;8.248;2023-02-26T14:01:31;3.80;99.90
16781;DHT22;8507;50.056;8.248;2023-02-26T14:06:48;3.70;99.90
16781;DHT22;8507;50.056;8.248;2023-02-26T14:14:39;3.60;99.90
16781;DHT22;8507;50.056;8.248;2023-02-26T14:19:37;3.60;99.90
16781;DHT22;8507;50.056;8.248;2023-02-26T14:22:19;3.50;99.90
16781;DHT22;8507;50.056;8.248;2023-02-26T14:29:43;3.60;99.90
16781;DHT22;8507;50.056;8.248;2023-02-26T14:35:02;3.80;99.90
16781;DHT22;8507;50.056;8.248;2023-02-26T14:37:29;3.90;99.90
16781;DHT22;8507;50.056;8.248;2023-02-26T14:40:03;3.60;99.90
16781;DHT22;8507;50.056;8.248;2023-02-26T14:42:34;3.70;99.90
16781;DHT22;8507;50.056;8.248;2023-02-26T14:45:17;3.60;99.90
16781;DHT22;8507;50.056;8.248;2023-02-26T14:47:47;3.70;99.90
16781;DHT22;8507;50.056;8.248;2023-02-26T14:50:16;3.80;99.90
16781;DHT22;8507;50.056;8.248;2023-02-26T15:03:50;3.60;99.90
16781;DHT22;8507;50.056;8.248;2023-02-26T15:06:35;3.60;99.90
16781;DHT22;8507;50.056;8.248;2023-02-26T15:17:42;3.60;99.90
16781;DHT22;8507;50.056;8.248;2023-02-26T15:20:21;3.60;99.90
16781;DHT22;8507;50.056;8.248;2023-02-26T15:25:42;3.40;99.90
16781;DHT22;8507;50.056;8.248;2023-02-26T15:28:35;3.50;99.90
16781;DHT22;8507;50.056;8.248;2023-02-26T15:31:03;3.30;99.90
16781;DHT22;8507;50.056;8.248;2023-02-26T15:33:31;3.30;99.90
16781;DHT22;8507;50.056;8.248;2023-02-26T15:35:58;3.40;99.90
16781;DHT22;8507;50.056;8.248;2023-02-26T15:38:24;3.40;99.90
16781;DHT22;8507;50.056;8.248;2023-02-26T15:40:52;3.40;99.90
16781;DHT22;8507;50.056;8.248;2023-02-26T15:43:26;3.50;99.90
16781;DHT22;8507;50.056;8.248;2023-02-26T15:45:54;3.40;99.90
16781;DHT22;8507;50.056;8.248;2023-02-26T15:48:28;3.30;99.90
16781;DHT22;8507;50.056;8.248;2023-02-26T15:51:00;3.30;99.90
16781;DHT22;8507;50.056;8.248;2023-02-26T15:53:37;3.20;99.90
16781;DHT22;8507;50.056;8.248;2023-02-26T15:56:09;3.10;99.90
16781;DHT22;8507;50.056;8.248;2023-02-26T15:58:41;3.00;99.90
16781;DHT22;8507;50.056;8.248;2023-02-26T16:01:14;3.00;99.90
16781;DHT22;8507;50.056;8.248;2023-02-26T16:03:41;2.90;99.90
16781;DHT22;8507;50.056;8.248;2023-02-26T16:06:12;2.90;99.90
16781;DHT22;8507;50.056;8.248;2023-02-26T16:08:38;2.90;99.90
16781;DHT22;8507;50.056;8.248;2023-02-26T16:11:04;2.80;99.90
16781;DHT22;8507;50.056;8.248;2023-02-26T16:13:34;2.90;99.90
16781;DHT22;8507;50.056;8.248;2023-02-26T16:16:06;2.90;99.90
16781;DHT22;8507;50.056;8.248;2023-02-26T16:18:35;2.70;99.90
16781;DHT22;8507;50.056;8.248;2023-02-26T16:21:05;2.60;99.90
16781;DHT22;8507;50.056;8.248;2023-02-26T16:23:47;2.60;99.90
16781;DHT22;8507;50.056;8.248;2023-02-26T16:29:00;2.40;99.90
16781;DHT22;8507;50.056;8.248;2023-02-26T16:31:27;2.40;99.90
16781;DHT22;8507;50.056;8.248;2023-02-26T16:34:04;2.30;99.90
16781;DHT22;8507;50.056;8.248;2023-02-26T16:36:40;2.30;99.90
16781;DHT22;8507;50.056;8.248;2023-02-26T16:41:37;2.20;99.90
16781;DHT22;8507;50.056;8.248;2023-02-26T16:46:55;2.10;99.90
16781;DHT22;8507;50.056;8.248;2023-02-26T16:49:34;2.00;99.90
16781;DHT22;8507;50.056;8.248;2023-02-26T16:52:00;2.00;99.90
16781;DHT22;8507;50.056;8.248;2023-02-26T16:54:34;2.00;99.90
16781;DHT22;8507;50.056;8.248;2023-02-26T16:59:30;2.00;99.90
16781;DHT22;8507;50.056;8.248;2023-02-26T17:02:08;1.90;99.90
16781;DHT22;8507;50.056;8.248;2023-02-26T17:04:38;2.00;99.90
16781;DHT22;8507;50.056;8.248;2023-02-26T17:07:14;1.90;99.90
16781;DHT22;8507;50.056;8.248;2023-02-26T17:09:46;1.90;99.90
16781;DHT22;8507;50.056;8.248;2023-02-26T17:12:15;1.80;99.90
16781;DHT22;8507;50.056;8.248;2023-02-26T17:14:46;1.90;99.90
16781;DHT22;8507;50.056;8.248;2023-02-26T17:17:16;1.90;99.90
16781;DHT22;8507;50.056;8.248;2023-02-26T17:19:42;1.90;99.90
16781;DHT22;8507;50.056;8.248;2023-02-26T17:22:13;1.90;99.90
16781;DHT22;8507;50.056;8.248;2023-02-26T17:24:41;1.80;99.90
16781;DHT22;8507;50.056;8.248;2023-02-26T17:27:26;1.80;99.90
16781;DHT22;8507;50.056;8.248;2023-02-26T17:29:52;1.80;99.90
16781;DHT22;8507;50.056;8.248;2023-02-26T17:32:23;1.70;99.90
16781;DHT22;8507;50.056;8.248;2023-02-26T17:34:51;1.80;99.90
16781;DHT22;8507;50.056;8.248;2023-02-26T17:37:17;1.80;99.90
16781;DHT22;8507;50.056;8.248;2023-02-26T17:39:43;1.70;99.90
16781;DHT22;8507;50.056;8.248;2023-02-26T17:42:16;1.70;99.90
16781;DHT22;8507;50.056;8.248;2023-02-26T17:44:43;1.70;99.90
16781;DHT22;8507;50.056;8.248;2023-02-26T17:47:14;1.80;99.90
16781;DHT22;8507;50.056;8.248;2023-02-26T17:49:41;1.70;99.90
16781;DHT22;8507;50.056;8.248;2023-02-26T17:52:06;1.60;99.90
16781;DHT22;8507;50.056;8.248;2023-02-26T17:54:32;1.70;99.90
16781;DHT22;8507;50.056;8.248;2023-02-26T17:56:58;1.60;99.90
16781;DHT22;8507;50.056;8.248;2023-02-26T17:59:24;1.60;99.90
16781;DHT22;8507;50.056;8.248;2023-02-26T18:01:49;1.50;99.90
16781;DHT22;8507;50.056;8.248;2023-02-26T18:04:15;1.70;99.90
16781;DHT22;8507;50.056;8.248;2023-02-26T18:06:41;1.70;99.90
16781;DHT22;8507;50.056;8.248;2023-02-26T18:09:09;1.70;99.90
16781;DHT22;8507;50.056;8.248;2023-02-26T18:11:35;1.60;99.90
16781;DHT22;8507;50.056;8.248;2023-02-26T18:14:01;1.60;99.90
16781;DHT22;8507;50.056;8.248;2023-02-26T18:16:33;1.50;99.90
16781;DHT22;8507;50.056;8.248;2023-02-26T18:19:00;1.50;99.90
16781;DHT22;8507;50.056;8.248;2023-02-26T18:21:26;1.50;99.90
16781;DHT22;8507;50.056;8.248;2023-02-26T18:23:52;1.50;99.90
16781;DHT22;8507;50.056;8.248;2023-02-26T18:26:22;1.60;99.90
16781;DHT22;8507;50.056;8.248;2023-02-26T18:28:48;1.60;99.90
16781;DHT22;8507;50.056;8.248;2023-02-26T18:31:16;1.60;99.90
16781;DHT22;8507;50.056;8.248;2023-02-26T18:33:41;1.70;99.90
16781;DHT22;8507;50.056;8.248;2023-02-26T18:36:33;1.70;99.90
16781;DHT22;8507;50.056;8.248;2023-02-26T18:39:04;1.70;99.90
16781;DHT22;8507;50.056;8.248;2023-02-26T18:41:30;1.70;99.90
16781;DHT22;8507;50.056;8.248;2023-02-26T18:43:57;1.70;99.90
16781;DHT22;8507;50.056;8.248;2023-02-26T18:46:23;1.70;99.90
16781;DHT22;8507;50.056;8.248;2023-02-26T18:48:49;1.60;99.90
16781;DHT22;8507;50.056;8.248;2023-02-26T18:51:14;1.60;99.90
16781;DHT22;8507;50.056;8.248;2023-02-26T18:53:40;1.60;99.90
16781;DHT22;8507;50.056;8.248;2023-02-26T18:56:06;1.60;99.90
16781;DHT22;8507;50.056;8.248;2023-02-26T18:58:31;1.70;99.90
16781;DHT22;8507;50.056;8.248;2023-02-26T19:00:57;1.60;99.90